Time;durP1;ratioP1;P1;durP2;ratioP2;P2;SDS_P1;SDS_P2;PMS_P1;PMS_P2;Temp;Humidity;BMP_temperature;BMP_pressure;BME280_temperature;BME280_humidity;BME280_pressure;Samples;Min_cycle;Max_cycle;Signal;HPM_P1;HPM_P2
2021/01/06 00:01:48;;;;;;;11.23;5.38;;;;;;;3.98;51.15;101187.28;5028998;28;20033;-72
2021/01/06 00:04:16;;;;;;;9.93;5.13;;;;;;;3.98;51.18;101181.84;5024555;28;20043;-72
2021/01/06 00:06:43;;;;;;;10.93;5.68;;;;;;;4.00;50.91;101179.94;5023285;28;20038;-72
2021/01/06 00:09:10;;;;;;;11.32;5.72;;;;;;;4.01;51.10;101187.13;5027032;28;20500;-72
2021/01/06 00:11:40;;;;;;;9.52;5.15;;;;;;;4.01;51.15;101173.59;5018787;28;20044;-73
2021/01/06 00:14:14;;;;;;;8.98;5.15;;;;;;;4.04;51.18;101181.50;5036010;28;20120;-73
2021/01/06 00:16:42;;;;;;;9.57;4.93;;;;;;;4.03;51.25;101171.66;5025753;28;20548;-72
2021/01/06 00:19:12;;;;;;;8.38;4.47;;;;;;;4.05;50.77;101175.16;5027601;28;20041;-72
2021/01/06 00:21:40;;;;;;;8.80;4.78;;;;;;;4.05;51.26;101180.56;5029014;28;20064;-73
2021/01/06 00:24:07;;;;;;;9.32;5.20;;;;;;;4.05;51.12;101177.84;5021876;28;20054;-73
2021/01/06 00:26:35;;;;;;;10.93;5.03;;;;;;;4.06;51.05;101176.91;5023709;28;20041;-73
2021/01/06 00:29:04;;;;;;;8.15;4.78;;;;;;;4.08;51.33;101177.69;5015137;28;20049;-73
2021/01/06 00:31:38;;;;;;;7.50;4.18;;;;;;;4.12;51.58;101174.81;5025231;28;20045;-73
2021/01/06 00:34:05;;;;;;;8.52;4.32;;;;;;;4.10;51.24;101171.34;5030752;28;20037;-73
2021/01/06 00:36:33;;;;;;;7.85;4.03;;;;;;;4.10;51.48;101171.34;5030707;28;20051;-73
2021/01/06 00:39:00;;;;;;;7.65;3.92;;;;;;;4.11;51.38;101171.25;5031522;28;20041;-72
2021/01/06 00:41:29;;;;;;;8.15;4.82;;;;;;;4.13;51.20;101171.16;5033381;28;20041;-72
2021/01/06 00:43:57;;;;;;;8.40;4.53;;;;;;;4.13;51.32;101171.16;5026117;28;20079;-72
2021/01/06 00:46:30;;;;;;;7.78;4.55;;;;;;;4.15;51.50;101162.00;5028684;28;20070;-73
2021/01/06 00:48:58;;;;;;;8.15;4.72;;;;;;;4.13;51.37;101163.03;5032030;28;20125;-72
2021/01/06 00:51:27;;;;;;;9.48;4.70;;;;;;;4.13;51.39;101163.03;5048650;28;20080;-73
2021/01/06 00:53:54;;;;;;;8.00;4.68;;;;;;;4.13;51.47;101158.50;5033231;28;20056;-72
2021/01/06 00:56:29;;;;;;;9.13;4.55;;;;;;;4.17;51.51;101156.50;5034805;28;20551;-72
2021/01/06 00:58:57;;;;;;;8.32;4.35;;;;;;;4.14;51.31;101162.06;5047212;28;20037;-73
2021/01/06 01:01:27;;;;;;;7.90;4.60;;;;;;;4.14;51.28;101159.38;5028496;28;20041;-73
2021/01/06 01:03:58;;;;;;;7.80;4.82;;;;;;;4.14;51.38;101162.06;5031904;28;20104;-73
2021/01/06 01:06:26;;;;;;;9.18;5.30;;;;;;;4.13;51.38;101158.50;5015488;28;20545;-73
2021/01/06 01:08:54;;;;;;;8.00;4.57;;;;;;;4.13;51.52;101157.59;5020737;28;20050;-73
2021/01/06 01:11:22;;;;;;;8.27;5.32;;;;;;;4.12;51.67;101155.84;5033879;28;20068;-73
2021/01/06 01:13:50;;;;;;;7.85;4.70;;;;;;;4.11;51.47;101160.44;5032991;28;20049;-73
2021/01/06 01:16:19;;;;;;;7.25;4.35;;;;;;;4.10;51.49;101153.25;5024773;28;20399;-73
2021/01/06 01:18:47;;;;;;;7.65;4.57;;;;;;;4.11;51.64;101157.72;5029079;28;20041;-73
2021/01/06 01:21:18;;;;;;;8.48;4.38;;;;;;;4.13;51.66;101152.19;5032872;28;20084;-73
2021/01/06 01:23:46;;;;;;;7.18;4.32;;;;;;;4.11;51.57;101154.13;5024795;28;20069;-73
2021/01/06 01:26:13;;;;;;;6.55;4.13;;;;;;;4.12;51.61;101161.28;5025535;28;20407;-73
2021/01/06 01:28:40;;;;;;;7.32;4.35;;;;;;;4.13;51.55;101154.91;5028699;28;20526;-73
2021/01/06 01:31:08;;;;;;;8.10;4.75;;;;;;;4.13;51.70;101160.31;5032923;28;20392;-73
2021/01/06 01:33:35;;;;;;;8.52;4.50;;;;;;;4.12;51.81;101161.28;5032698;28;20042;-73
2021/01/06 01:36:02;;;;;;;9.00;4.70;;;;;;;4.13;51.47;101165.72;5032607;28;20041;-73
2021/01/06 01:38:31;;;;;;;8.70;4.80;;;;;;;4.13;51.36;101163.91;5023338;28;20043;-73
2021/01/06 01:41:01;;;;;;;8.48;5.20;;;;;;;4.14;51.75;101162.94;5023228;28;20041;-73
2021/01/06 01:43:30;;;;;;;8.65;4.72;;;;;;;4.14;51.33;101157.53;5047601;28;20048;-73
2021/01/06 01:46:34;;;;;;;8.13;5.18;;;;;;;4.13;52.05;101169.31;5031480;28;20523;-73
2021/01/06 01:49:06;;;;;;;8.63;5.20;;;;;;;4.08;52.39;101160.59;5022792;28;20074;-73
2021/01/06 01:51:39;;;;;;;10.05;5.50;;;;;;;4.08;51.97;101157.88;5026569;28;20425;-73
2021/01/06 01:54:09;;;;;;;9.88;5.50;;;;;;;4.09;51.79;101159.63;5032094;28;20511;-73
2021/01/06 01:56:45;;;;;;;7.90;4.82;;;;;;;4.10;52.14;101160.50;5032594;28;20129;-73
2021/01/06 01:59:23;;;;;;;9.32;5.35;;;;;;;4.09;52.22;101159.63;5027328;28;20053;-73
2021/01/06 02:01:53;;;;;;;9.43;5.55;;;;;;;4.03;52.15;101157.22;5030100;28;20072;-73
2021/01/06 02:04:28;;;;;;;10.20;5.82;;;;;;;4.06;52.31;101151.66;5029944;28;20396;-73
2021/01/06 02:07:03;;;;;;;9.35;5.70;;;;;;;4.04;52.17;101153.56;5033776;28;20045;-73
2021/01/06 02:09:37;;;;;;;10.45;5.63;;;;;;;4.05;52.01;101155.31;5031911;28;20493;-73
2021/01/06 02:12:13;;;;;;;9.82;5.45;;;;;;;4.04;52.30;101151.75;5030288;28;20052;-73
2021/01/06 02:14:55;;;;;;;10.15;5.88;;;;;;;4.04;52.47;101159.88;5026195;28;20522;-73
2021/01/06 02:17:22;;;;;;;9.52;5.78;;;;;;;4.00;52.21;101152.00;5019556;28;20083;-73
2021/01/06 02:19:49;;;;;;;9.20;5.20;;;;;;;4.03;51.76;101157.22;5035618;28;20056;-73
2021/01/06 02:22:20;;;;;;;8.63;4.80;;;;;;;4.04;52.06;101154.44;5027492;28;20061;-73
2021/01/06 02:24:50;;;;;;;9.43;5.10;;;;;;;4.05;52.10;101155.31;5028369;28;20506;-72
2021/01/06 02:27:18;;;;;;;8.23;4.90;;;;;;;4.05;52.06;101158.03;5020498;28;20037;-73
2021/01/06 02:29:46;;;;;;;8.60;4.80;;;;;;;4.05;52.02;101155.31;5031392;28;20103;-73
2021/01/06 02:32:14;;;;;;;9.57;5.63;;;;;;;4.07;52.24;101157.00;5030810;28;20037;-73
2021/01/06 02:34:42;;;;;;;9.48;4.72;;;;;;;4.08;51.88;101153.34;5024950;28;20049;-73
2021/01/06 02:37:11;;;;;;;8.32;4.78;;;;;;;4.10;51.74;101152.38;5024429;28;20033;-73
2021/01/06 02:39:40;;;;;;;8.88;4.97;;;;;;;4.11;51.62;101159.56;5024364;28;21213;-73
2021/01/06 02:42:07;;;;;;;7.82;4.68;;;;;;;4.11;52.05;101154.13;5032481;28;20083;-73
2021/01/06 02:44:35;;;;;;;8.90;4.72;;;;;;;4.12;52.08;101159.44;5032455;28;20438;-73
2021/01/06 02:47:03;;;;;;;7.68;4.32;;;;;;;4.12;52.07;101161.28;5023453;28;20041;-73
2021/01/06 02:49:31;;;;;;;9.05;4.80;;;;;;;4.13;51.71;101157.59;5046478;28;20079;-73
2021/01/06 02:52:06;;;;;;;6.75;3.80;;;;;;;4.16;51.98;101152.91;5031011;28;20468;-73
2021/01/06 02:54:36;;;;;;;7.38;4.00;;;;;;;4.16;51.78;101155.63;5026083;28;20077;-73
2021/01/06 02:57:06;;;;;;;7.95;4.63;;;;;;;4.17;52.02;101157.38;5028752;28;20125;-73
2021/01/06 02:59:38;;;;;;;7.03;3.95;;;;;;;4.18;52.11;101147.41;5029809;28;20056;-73
2021/01/06 03:02:08;;;;;;;6.65;4.38;;;;;;;4.17;52.25;101149.25;5031804;28;20049;-73
2021/01/06 03:04:40;;;;;;;8.25;4.38;;;;;;;4.19;52.11;101144.63;5026602;28;20052;-73
2021/01/06 03:07:10;;;;;;;6.60;3.70;;;;;;;4.21;52.08;101149.94;5021191;28;20041;-73
2021/01/06 03:09:39;;;;;;;6.93;4.07;;;;;;;4.22;51.64;101148.97;5031975;28;20404;-73
2021/01/06 03:12:12;;;;;;;6.00;3.40;;;;;;;4.24;51.97;101147.94;5029069;28;20037;-73
2021/01/06 03:14:40;;;;;;;7.00;3.53;;;;;;;4.22;51.92;101147.16;5030965;28;20116;-73
2021/01/06 03:17:08;;;;;;;7.72;4.60;;;;;;;4.25;51.84;101143.41;5028493;28;20404;-73
2021/01/06 03:19:39;;;;;;;6.43;3.85;;;;;;;4.27;51.61;101146.91;5019868;28;20041;-73
2021/01/06 03:22:09;;;;;;;7.53;4.25;;;;;;;4.27;51.89;101146.91;5029398;28;20183;-73
2021/01/06 03:24:42;;;;;;;6.68;3.45;;;;;;;4.28;51.71;101143.22;5026168;28;20045;-72
2021/01/06 03:27:12;;;;;;;6.75;3.95;;;;;;;4.27;51.91;101146.91;5023115;28;20160;-73
2021/01/06 03:29:42;;;;;;;8.95;5.07;;;;;;;4.28;51.78;101144.09;5023122;28;20038;-73
2021/01/06 03:32:16;;;;;;;7.95;4.63;;;;;;;4.28;51.62;101145.94;5029785;28;20116;-72
2021/01/06 03:34:55;;;;;;;7.93;4.38;;;;;;;4.30;51.77;101146.72;5027616;28;20046;-73
2021/01/06 03:37:29;;;;;;;6.88;4.05;;;;;;;4.29;51.62;101140.44;5026663;28;20508;-73
2021/01/06 03:40:06;;;;;;;8.90;4.70;;;;;;;4.28;51.70;101143.22;5045746;28;20038;-73
2021/01/06 03:42:35;;;;;;;9.20;5.45;;;;;;;4.26;51.51;101140.63;5029713;28;20065;-73
2021/01/06 03:45:05;;;;;;;7.97;5.00;;;;;;;4.26;51.57;101148.75;5046663;28;20037;-72
2021/01/06 03:47:41;;;;;;;9.00;5.47;;;;;;;4.28;52.08;101145.94;5040410;28;20040;-73
2021/01/06 03:50:21;;;;;;;9.15;5.78;;;;;;;4.26;51.92;101137.91;5030796;28;20064;-73
2021/01/06 03:53:03;;;;;;;9.35;5.68;;;;;;;4.24;51.80;101139.81;5027384;28;20041;-73
2021/01/06 03:55:50;;;;;;;10.67;6.30;;;;;;;4.21;51.69;101145.41;5041776;28;20049;-73
2021/01/06 03:58:30;;;;;;;8.88;5.53;;;;;;;4.22;51.67;101135.44;5022886;28;20041;-72
2021/01/06 04:01:04;;;;;;;9.18;5.78;;;;;;;4.19;51.81;101136.50;5029958;28;20038;-73
2021/01/06 04:03:46;;;;;;;9.50;5.25;;;;;;;4.20;51.90;101140.94;5030229;28;20068;-72
2021/01/06 04:06:14;;;;;;;8.65;5.50;;;;;;;4.17;51.72;101130.31;5031846;28;20047;-72
2021/01/06 04:08:47;;;;;;;9.88;5.75;;;;;;;4.17;51.83;101129.44;5031483;28;20050;-73
2021/01/06 04:11:17;;;;;;;;;;;;;;;3.95;52.62;101129.72;5030894;28;20054;-73
2021/01/06 04:14:05;;;;;;;10.30;5.50;;;;;;;4.13;51.69;101130.53;5022105;28;19936;-73
2021/01/06 04:16:32;;;;;;;8.13;4.75;;;;;;;4.16;51.64;101133.97;5033445;28;20140;-73
2021/01/06 04:19:00;;;;;;;9.15;5.05;;;;;;;4.15;51.79;101129.50;5030760;28;20054;-72
2021/01/06 04:21:29;;;;;;;8.48;5.22;;;;;;;4.15;51.67;101121.38;5031660;28;20048;-73
2021/01/06 04:23:57;;;;;;;9.45;5.90;;;;;;;4.15;51.74;101128.63;5030925;28;20050;-73
2021/01/06 04:26:24;;;;;;;9.18;5.68;;;;;;;4.16;51.60;101131.25;5027463;28;20132;-73
2021/01/06 04:28:52;;;;;;;10.07;6.20;;;;;;;4.16;51.54;101120.44;5019876;28;20482;-73
2021/01/06 04:31:22;;;;;;;9.07;5.20;;;;;;;4.17;51.71;101119.47;5029396;28;20068;-72
2021/01/06 04:33:51;;;;;;;9.68;6.47;;;;;;;4.18;51.73;101131.19;5030458;28;20128;-73
2021/01/06 04:36:21;;;;;;;8.65;5.18;;;;;;;4.18;51.56;101132.06;5025009;28;20034;-73
2021/01/06 04:38:51;;;;;;;11.32;5.95;;;;;;;4.17;51.43;101126.72;5023202;28;20038;-73
2021/01/06 04:41:31;;;;;;;8.63;5.45;;;;;;;4.20;51.86;101129.22;5019945;28;20073;-73
2021/01/06 04:44:41;;;;;;;8.18;5.32;;;;;;;4.15;51.80;101136.75;5047739;28;20041;-73
2021/01/06 04:47:36;;;;;;;8.93;5.80;;;;;;;4.14;51.92;101125.03;5028483;28;20041;-72
2021/01/06 04:50:31;;;;;;;7.93;4.80;;;;;;;4.14;51.94;101124.16;5026849;28;20045;-73
2021/01/06 04:53:12;;;;;;;7.72;5.32;;;;;;;4.14;51.79;101132.28;5022277;28;20038;-72
2021/01/06 04:55:52;;;;;;;7.85;4.93;;;;;;;4.14;51.73;101126.88;5030775;28;20056;-72
2021/01/06 04:58:29;;;;;;;8.15;4.80;;;;;;;4.13;51.57;101130.53;5019272;28;20056;-72
2021/01/06 05:01:15;;;;;;;7.28;4.40;;;;;;;4.13;51.51;101126.00;5026173;28;20033;-72
2021/01/06 05:04:07;;;;;;;8.77;5.00;;;;;;;4.13;51.81;101122.41;5026391;28;20088;-73
2021/01/06 05:06:59;;;;;;;7.72;4.38;;;;;;;4.10;51.84;101123.47;5026394;28;20067;-71
2021/01/06 05:09:31;;;;;;;6.82;4.10;;;;;;;4.11;51.58;101116.22;5022764;28;20081;-72
2021/01/06 05:12:15;;;;;;;7.50;4.47;;;;;;;4.10;51.87;101128.03;5028392;28;20042;-72
2021/01/06 05:14:55;;;;;;;7.28;5.18;;;;;;;4.11;51.35;101124.34;5031056;28;20045;-72
2021/01/06 05:17:23;;;;;;;7.47;4.90;;;;;;;4.05;51.36;101117.44;5029666;28;20037;-72
2021/01/06 05:19:51;;;;;;;9.32;5.28;;;;;;;4.02;51.59;101113.06;5030536;28;20100;-73
2021/01/06 05:22:19;;;;;;;7.78;5.15;;;;;;;4.02;51.55;101113.06;5026462;28;20045;-72
2021/01/06 05:24:49;;;;;;;8.43;5.25;;;;;;;4.01;51.63;101116.75;5031801;28;20124;-73
2021/01/06 05:27:26;;;;;;;7.78;5.28;;;;;;;4.01;51.81;101114.03;5025712;28;20046;-72
2021/01/06 05:29:57;;;;;;;8.23;5.20;;;;;;;4.01;51.79;101119.44;5033055;28;20037;-72
2021/01/06 05:32:30;;;;;;;6.77;4.63;;;;;;;4.00;51.56;101119.53;5027374;28;20440;-73
2021/01/06 05:35:02;;;;;;;10.23;4.87;;;;;;;3.98;51.77;101119.59;5030566;28;20041;-72
2021/01/06 05:37:30;;;;;;;7.90;4.60;;;;;;;3.98;51.62;101116.91;5028645;28;20083;-71
2021/01/06 05:40:03;;;;;;;7.72;5.32;;;;;;;3.98;51.70;101124.13;5041383;28;20045;-72
2021/01/06 05:42:39;;;;;;;7.22;4.70;;;;;;;3.95;51.89;101118.88;5028823;28;20392;-71
2021/01/06 05:45:08;;;;;;;7.97;5.00;;;;;;;3.91;51.74;101122.72;5027194;28;20038;-72
2021/01/06 05:47:39;;;;;;;6.65;4.25;;;;;;;3.94;51.69;101115.34;5026610;28;20056;-72
2021/01/06 05:50:13;;;;;;;6.70;4.40;;;;;;;3.93;51.69;101116.28;5014817;28;20038;-72
2021/01/06 05:52:41;;;;;;;7.45;4.32;;;;;;;3.89;51.73;101119.22;5024490;28;20048;-72
2021/01/06 05:55:18;;;;;;;8.50;4.88;;;;;;;3.89;51.70;101120.09;5035117;28;20096;-72
2021/01/06 05:57:49;;;;;;;8.07;4.80;;;;;;;3.86;51.51;101116.72;5033720;28;20087;-72
2021/01/06 06:00:33;;;;;;;6.55;4.15;;;;;;;3.88;51.78;101112.94;5033756;28;20083;-72
2021/01/06 06:03:34;;;;;;;8.60;5.20;;;;;;;3.83;51.91;101114.16;5034689;28;20115;-72
2021/01/06 06:06:32;;;;;;;7.57;4.70;;;;;;;3.82;51.69;101115.97;5019078;28;20111;-72
2021/01/06 06:09:05;;;;;;;7.43;4.43;;;;;;;3.81;51.54;101119.66;5047131;28;20051;-71
2021/01/06 06:12:02;;;;;;;7.22;4.95;;;;;;;3.80;51.75;101120.59;5033422;28;20033;-72
2021/01/06 06:15:03;;;;;;;8.13;5.20;;;;;;;3.75;51.85;101122.69;5024900;28;20041;-72
2021/01/06 06:20:45;;;;;;;8.68;4.90;;;;;;;3.76;51.79;101118.16;5013881;28;20113;-72
2021/01/06 06:23:31;;;;;;;8.50;5.20;;;;;;;3.79;51.41;101126.09;5024115;28;20045;-72
2021/01/06 06:26:05;;;;;;;10.18;5.68;;;;;;;3.73;51.43;101116.47;5034615;28;20045;-72
2021/01/06 06:28:39;;;;;;;10.52;5.70;;;;;;;3.76;51.48;101123.56;5033758;28;20107;-72
2021/01/06 06:31:15;;;;;;;;;;;;;;;3.50;52.32;101125.78;5033128;28;20111;-72
2021/01/06 06:33:43;;;;;;;8.90;5.38;;;;;;;3.68;51.63;101118.56;5033896;28;19928;-72
2021/01/06 06:36:12;;;;;;;9.88;5.95;;;;;;;3.68;51.58;101119.44;5033435;28;20052;-71
2021/01/06 06:38:43;;;;;;;10.63;5.90;;;;;;;3.71;51.52;101121.09;5031705;28;20111;-72
2021/01/06 06:41:24;;;;;;;9.45;6.35;;;;;;;3.70;51.65;101119.34;5042118;28;20072;-72
2021/01/06 06:43:53;;;;;;;11.20;6.32;;;;;;;3.69;51.57;101126.59;5033405;28;20041;-72
2021/01/06 06:46:33;;;;;;;10.65;6.43;;;;;;;3.73;51.58;101130.00;5031966;28;20128;-72
2021/01/06 06:49:17;;;;;;;9.60;5.53;;;;;;;3.73;51.72;101129.13;5032434;28;20091;-72
2021/01/06 06:51:53;;;;;;;12.48;6.85;;;;;;;3.70;51.95;101130.16;5033236;28;20427;-71
2021/01/06 06:54:29;;;;;;;12.20;7.18;;;;;;;3.71;51.67;101129.19;5024605;28;20049;-72
2021/01/06 06:57:01;;;;;;;12.65;6.95;;;;;;;3.73;51.67;101127.31;5032894;28;20045;-72
2021/01/06 06:59:37;;;;;;;10.98;6.20;;;;;;;3.74;51.69;101129.06;5032597;28;20046;-72
2021/01/06 07:02:05;;;;;;;11.27;6.43;;;;;;;3.75;51.65;101133.50;5031364;28;20041;-72
2021/01/06 07:04:57;;;;;;;11.80;6.55;;;;;;;3.78;51.54;101127.94;5032919;28;20056;-72
2021/01/06 07:07:35;;;;;;;10.18;5.97;;;;;;;3.79;51.61;101120.66;5032458;28;20045;-72
2021/01/06 07:10:06;;;;;;;10.82;6.20;;;;;;;3.80;51.29;101122.44;5014449;28;20037;-72
2021/01/06 07:12:40;;;;;;;12.48;6.57;;;;;;;3.81;51.35;101121.47;5028388;28;20547;-72
2021/01/06 07:15:21;;;;;;;10.60;6.03;;;;;;;3.82;51.43;101121.41;5031016;28;20041;-72
2021/01/06 07:17:49;;;;;;;9.95;6.35;;;;;;;3.81;51.07;101127.75;5032887;28;20488;-72
2021/01/06 07:20:33;;;;;;;13.95;6.68;;;;;;;3.84;51.31;101132.16;5031561;28;20355;-72
2021/01/06 07:23:11;;;;;;;11.27;6.22;;;;;;;3.83;51.24;101130.38;5032643;28;20053;-72
2021/01/06 07:25:42;;;;;;;11.70;5.80;;;;;;;3.80;51.18;101122.44;5024136;28;20042;-72
2021/01/06 07:28:15;;;;;;;10.50;6.38;;;;;;;3.81;51.20;101129.59;5027625;28;20037;-72
2021/01/06 07:30:45;;;;;;;9.88;5.47;;;;;;;3.80;51.23;101120.59;5026289;28;20056;-72
2021/01/06 07:33:27;;;;;;;11.13;6.25;;;;;;;3.82;51.09;101129.50;5032685;28;20563;-72
2021/01/06 07:36:06;;;;;;;11.38;6.55;;;;;;;3.83;51.14;101135.81;5039184;28;20137;-72
2021/01/06 07:38:34;;;;;;;12.35;6.72;;;;;;;3.79;51.22;101131.50;5032152;28;20042;-72
2021/01/06 07:41:03;;;;;;;9.63;5.85;;;;;;;3.81;51.08;101135.00;5031703;28;20037;-73
2021/01/06 07:43:34;;;;;;;11.25;6.13;;;;;;;3.79;51.09;101135.06;5030324;28;20119;-72
2021/01/06 07:46:15;;;;;;;10.15;6.05;;;;;;;3.80;50.94;101142.25;5031133;28;20037;-73
2021/01/06 07:49:10;;;;;;;10.70;6.50;;;;;;;3.77;51.08;101141.56;5031583;28;20124;-72
2021/01/06 07:51:51;;;;;;;10.60;5.80;;;;;;;3.78;51.06;101143.31;5026708;28;20057;-72
2021/01/06 07:54:27;;;;;;;12.77;7.03;;;;;;;3.77;51.06;101142.44;5047747;28;20578;-73
2021/01/06 07:57:06;;;;;;;11.77;6.65;;;;;;;3.77;51.18;101144.25;5031723;28;20072;-72
2021/01/06 07:59:44;;;;;;;11.43;6.50;;;;;;;3.74;50.82;101148.00;5022107;28;20497;-72
2021/01/06 08:02:17;;;;;;;11.13;6.18;;;;;;;3.72;50.80;101144.50;5031634;28;20076;-72
2021/01/06 08:05:01;;;;;;;9.40;5.60;;;;;;;3.74;50.72;101152.53;5032179;28;20131;-72
2021/01/06 08:07:30;;;;;;;10.88;5.78;;;;;;;3.73;50.83;101153.47;5031772;28;20129;-72
2021/01/06 08:09:57;;;;;;;10.05;5.72;;;;;;;3.73;50.80;101151.66;5020576;28;20100;-72
2021/01/06 08:12:28;;;;;;;9.98;5.75;;;;;;;3.75;50.85;101157.88;5029834;28;20480;-73
2021/01/06 08:15:09;;;;;;;9.23;5.90;;;;;;;3.76;50.95;101161.44;5025513;28;20045;-72
2021/01/06 08:17:45;;;;;;;9.20;5.38;;;;;;;3.75;51.11;101152.44;5019676;28;20041;-72
2021/01/06 08:20:21;;;;;;;9.48;5.53;;;;;;;3.75;50.38;101157.88;5031220;28;20041;-72
2021/01/06 08:22:58;;;;;;;8.52;4.90;;;;;;;3.77;50.70;101157.78;5031973;28;20505;-72
2021/01/06 08:25:28;;;;;;;9.57;5.53;;;;;;;3.76;50.87;101162.31;5031086;28;20050;-72
2021/01/06 08:27:57;;;;;;;8.85;5.82;;;;;;;3.76;50.69;101156.03;5027294;28;20417;-72
2021/01/06 08:30:27;;;;;;;8.20;4.70;;;;;;;3.77;50.60;101164.06;5020450;28;20080;-72
2021/01/06 08:33:04;;;;;;;8.13;4.82;;;;;;;3.80;50.99;101166.59;5028398;28;20041;-72
2021/01/06 08:35:34;;;;;;;9.68;5.40;;;;;;;3.79;51.00;101166.66;5028193;28;20091;-73
2021/01/06 08:38:01;;;;;;;11.73;5.88;;;;;;;3.79;51.06;101163.97;5030340;28;20041;-72
2021/01/06 08:40:36;;;;;;;9.07;5.28;;;;;;;3.83;51.07;101166.44;5023264;28;20073;-73
2021/01/06 08:43:10;;;;;;;11.13;6.47;;;;;;;3.84;50.89;101167.31;5025554;28;20129;-72
2021/01/06 08:45:40;;;;;;;8.77;5.10;;;;;;;3.83;50.99;101166.44;5019125;28;20046;-72
2021/01/06 08:48:31;;;;;;;9.85;5.85;;;;;;;3.85;50.96;101166.38;5043049;28;20200;-72
2021/01/06 08:51:07;;;;;;;11.02;6.35;;;;;;;3.86;50.66;101169.00;5023946;28;20041;-72
2021/01/06 08:53:37;;;;;;;11.00;6.05;;;;;;;3.85;50.62;101171.78;5032261;28;20073;-73
2021/01/06 08:56:09;;;;;;;12.38;7.03;;;;;;;3.84;50.79;101170.91;5036795;28;20037;-72
2021/01/06 08:58:43;;;;;;;10.38;5.68;;;;;;;3.87;50.67;101173.44;5033967;28;20473;-72
2021/01/06 09:01:26;;;;;;;10.43;6.15;;;;;;;3.87;50.84;101172.56;5031422;28;20033;-72
2021/01/06 09:04:07;;;;;;;9.77;6.15;;;;;;;3.85;50.37;101171.78;5031288;28;20096;-72
2021/01/06 09:06:46;;;;;;;11.38;5.80;;;;;;;3.82;50.71;101177.34;5032613;28;20117;-71
2021/01/06 09:09:33;;;;;;;10.98;6.50;;;;;;;3.84;50.22;101173.63;5029863;28;20096;-72
2021/01/06 09:12:00;;;;;;;10.68;6.57;;;;;;;3.82;50.41;101175.53;5031242;28;20076;-72
2021/01/06 09:14:33;;;;;;;11.10;7.25;;;;;;;3.83;50.57;101176.41;5027134;28;20132;-71
2021/01/06 09:17:17;;;;;;;10.70;6.18;;;;;;;3.82;50.40;101171.94;5033046;28;20504;-71
2021/01/06 09:19:46;;;;;;;;;;;;;;;3.57;51.22;101181.31;5027688;28;20038;-71
2021/01/06 09:22:16;;;;;;;10.45;6.40;;;;;;;3.75;50.57;101181.34;5025684;28;19921;-71
2021/01/06 09:24:45;;;;;;;8.65;5.40;;;;;;;3.79;50.31;101177.50;5034984;28;20048;-71
2021/01/06 09:27:26;;;;;;;10.02;5.95;;;;;;;3.82;50.27;101182.75;5040024;28;20063;-70
2021/01/06 09:29:57;;;;;;;10.25;5.75;;;;;;;3.81;50.37;101186.41;5035519;28;20049;-70
2021/01/06 09:32:31;;;;;;;10.82;6.40;;;;;;;3.82;50.63;101182.75;5033550;28;20355;-70
2021/01/06 09:35:01;;;;;;;10.35;6.65;;;;;;;3.82;50.62;101193.59;5034465;28;20088;-70
2021/01/06 09:37:33;;;;;;;9.75;6.05;;;;;;;3.83;50.45;101192.63;5031847;28;20045;-71
2021/01/06 09:40:08;;;;;;;11.00;6.47;;;;;;;3.85;50.57;101194.31;5035097;28;20053;-72
2021/01/06 09:42:38;;;;;;;11.68;6.47;;;;;;;3.84;50.89;101195.25;5025268;28;20072;-71
2021/01/06 09:45:19;;;;;;;11.57;6.93;;;;;;;3.89;50.79;101195.00;5035149;28;20117;-73
2021/01/06 09:47:47;;;;;;;11.27;6.57;;;;;;;3.87;50.84;101194.19;5025766;28;20046;-72
2021/01/06 09:50:19;;;;;;;11.15;6.15;;;;;;;3.89;50.67;101195.88;5024434;28;20103;-73
2021/01/06 09:52:50;;;;;;;11.25;7.47;;;;;;;3.90;50.54;101196.75;5031112;28;20049;-73
2021/01/06 09:55:21;;;;;;;9.90;6.25;;;;;;;3.92;50.73;101200.25;5032059;28;20037;-73
2021/01/06 09:57:49;;;;;;;12.90;7.93;;;;;;;3.89;50.57;101195.00;5034108;28;20041;-73
2021/01/06 10:00:34;;;;;;;10.88;6.30;;;;;;;3.95;50.61;101200.06;5031937;28;20116;-72
2021/01/06 10:03:03;;;;;;;11.43;7.10;;;;;;;3.93;50.61;101197.47;5028723;28;20049;-73
2021/01/06 10:05:44;;;;;;;10.90;6.07;;;;;;;3.98;50.46;101194.50;5030957;28;20500;-73
2021/01/06 10:08:24;;;;;;;10.07;6.18;;;;;;;3.98;50.58;101198.09;5032965;28;20052;-73
2021/01/06 10:10:56;;;;;;;11.90;7.35;;;;;;;3.99;50.66;101196.28;5029405;28;20113;-71
2021/01/06 10:13:34;;;;;;;13.10;7.30;;;;;;;3.99;50.62;101199.84;5030197;28;20046;-72
2021/01/06 10:16:06;;;;;;;12.43;7.38;;;;;;;4.02;50.46;101185.28;5029254;28;20115;-72
2021/01/06 10:18:41;;;;;;;12.73;7.70;;;;;;;4.04;50.48;101186.06;5029078;28;20523;-72
2021/01/06 10:21:18;;;;;;;14.15;7.88;;;;;;;4.03;50.02;101181.59;5029495;28;20046;-71
2021/01/06 10:24:05;;;;;;;13.77;7.70;;;;;;;4.04;49.93;101177.94;5029255;28;20128;-72
2021/01/06 10:26:42;;;;;;;15.52;9.27;;;;;;;4.03;50.18;101179.75;5029284;28;20563;-72
2021/01/06 10:29:14;;;;;;;13.95;8.30;;;;;;;4.05;50.10;101179.69;5028234;28;20041;-72
2021/01/06 10:32:23;;;;;;;13.98;8.75;;;;;;;4.02;49.97;101175.34;5026586;28;20047;-72
2021/01/06 10:35:06;;;;;;;15.15;9.02;;;;;;;4.03;50.03;101176.19;5044258;28;20046;-71
2021/01/06 10:37:33;;;;;;;15.13;8.23;;;;;;;4.02;50.32;101175.34;5029192;28;20041;-71
2021/01/06 10:40:14;;;;;;;15.82;9.02;;;;;;;4.08;49.80;101180.41;5027713;28;20053;-71
2021/01/06 10:42:42;;;;;;;15.00;8.70;;;;;;;4.05;50.35;101172.44;5030860;28;20049;-71
2021/01/06 10:45:12;;;;;;;15.10;8.55;;;;;;;4.08;50.14;101164.16;5030347;28;20040;-71
2021/01/06 10:47:44;;;;;;;17.27;9.43;;;;;;;4.11;50.08;101171.25;5031118;28;20216;-71
2021/01/06 10:50:43;;;;;;;15.75;9.13;;;;;;;4.11;49.94;101162.25;5027115;28;20150;-72
2021/01/06 10:53:24;;;;;;;13.45;8.10;;;;;;;4.12;49.99;101167.56;5025630;28;20064;-73
2021/01/06 10:56:01;;;;;;;15.88;9.70;;;;;;;4.12;50.07;101170.28;5026321;28;20042;-74
2021/01/06 10:58:42;;;;;;;16.50;9.85;;;;;;;4.15;50.06;101167.41;5031208;28;20041;-73
2021/01/06 11:01:47;;;;;;;16.85;10.15;;;;;;;4.14;49.83;101164.78;5030954;28;20504;-73
2021/01/06 11:04:37;;;;;;;18.60;9.50;;;;;;;4.15;49.61;101164.69;5046232;28;20068;-72
2021/01/06 11:07:21;;;;;;;19.17;9.93;;;;;;;4.17;49.92;101154.66;5030853;28;20044;-72
2021/01/06 11:10:16;;;;;;;17.35;9.27;;;;;;;4.19;49.53;101163.59;5028400;28;20392;-71
2021/01/06 11:13:09;;;;;;;19.50;10.82;;;;;;;4.16;49.42;101155.63;5023654;28;20062;-70
2021/01/06 11:15:52;;;;;;;17.92;10.18;;;;;;;4.18;49.81;101158.25;5028935;28;20072;-71
2021/01/06 11:18:36;;;;;;;18.57;10.00;;;;;;;4.18;49.40;101151.00;5030772;28;20099;-71
2021/01/06 11:21:17;;;;;;;20.95;12.00;;;;;;;4.18;49.43;101150.13;5029660;28;20278;-70
2021/01/06 11:23:51;;;;;;;20.52;11.45;;;;;;;4.19;49.53;101154.59;5028723;28;20496;-71
2021/01/06 11:26:46;;;;;;;18.98;10.57;;;;;;;4.17;49.29;101142.97;5038825;28;20041;-71
2021/01/06 11:29:21;;;;;;;20.52;10.45;;;;;;;4.19;49.63;101151.88;5030251;28;20664;-70
2021/01/06 11:32:28;;;;;;;16.98;10.43;;;;;;;4.13;49.35;101139.53;5030898;28;20136;-70
2021/01/06 11:35:30;;;;;;;20.05;10.57;;;;;;;4.16;49.37;101133.97;4970241;28;20042;-70
2021/01/06 11:38:00;;;;;;;18.55;9.70;;;;;;;4.17;49.85;101133.00;4954482;28;20043;-70
2021/01/06 11:40:54;;;;;;;16.10;8.80;;;;;;;4.20;49.53;101131.94;5014188;28;20579;-70
2021/01/06 11:43:38;;;;;;;17.77;9.82;;;;;;;4.22;49.52;101135.44;5023503;28;20064;-70
2021/01/06 11:46:47;;;;;;;15.98;9.25;;;;;;;4.18;50.04;101125.75;5029964;28;20510;-69
2021/01/06 11:49:24;;;;;;;16.52;9.20;;;;;;;4.24;50.49;101128.13;5029227;28;20048;-70
2021/01/06 11:52:20;;;;;;;15.20;8.30;;;;;;;4.28;50.86;101124.25;5030114;28;20049;-70
2021/01/06 11:54:53;;;;;;;20.30;11.20;;;;;;;4.30;50.50;101122.34;5017194;28;20057;-72
2021/01/06 11:57:30;;;;;;;15.40;9.00;;;;;;;4.38;50.35;101128.22;5031132;28;20409;-71
2021/01/06 12:00:20;;;;;;;19.00;10.15;;;;;;;4.44;49.64;101119.75;5028170;28;20037;-72
2021/01/06 12:02:59;;;;;;;19.27;10.50;;;;;;;4.49;49.73;101128.50;5031023;28;20056;-72
2021/01/06 12:05:31;;;;;;;17.23;11.68;;;;;;;4.49;49.59;101124.91;5022804;28;20044;-73
2021/01/06 12:08:20;;;;;;;15.50;9.60;;;;;;;4.51;48.94;101123.00;5027381;28;20045;-73
2021/01/06 12:11:03;;;;;;;18.50;10.27;;;;;;;4.53;48.74;101110.22;5025622;28;20073;-72